Time,TemperatureF,DewpointF,PressureIn,WindDirection,WindDirectionDegrees,WindSpeedMPH,WindSpeedGustMPH,Humidity,HourlyPrecipIn,Conditions,Clouds,dailyrainin,SoftwareType,DateUTC
2013-11-02 01:12:00,56.0,37.0,29.78,SE,135,0.0,1.0,48,0.00,,,0.00,,2013-11-02 06:12:00,
2013-11-02 01:22:00,55.0,38.0,29.79,SE,135,2.0,3.0,52,0.00,,,0.00,,2013-11-02 06:22:00,
2013-11-02 01:43:00,54.0,37.0,29.80,SE,135,0.0,3.0,53,0.00,,,0.00,,2013-11-02 06:43:00,
2013-11-02 01:52:00,54.0,37.0,29.80,SE,135,0.0,3.0,53,0.00,,,0.00,,2013-11-02 06:52:00,
2013-11-02 02:03:00,54.0,37.0,29.80,SE,135,0.0,3.0,53,0.00,,,0.00,,2013-11-02 07:03:00,
2013-11-02 02:12:00,54.0,37.0,29.80,SE,135,0.0,3.0,53,0.00,,,0.00,,2013-11-02 07:12:00,
2013-11-02 02:42:00,49.0,39.0,29.81,SE,135,0.0,0.0,69,0.00,,,0.00,,2013-11-02 07:42:00,
2013-11-02 02:52:00,48.0,39.0,29.81,SE,135,0.0,0.0,70,0.00,,,0.00,,2013-11-02 07:52:00,
2013-11-02 03:12:00,49.0,41.0,29.82,SE,135,0.0,0.0,74,0.00,,,0.00,,2013-11-02 08:12:00,
2013-11-02 03:21:00,48.0,40.0,29.83,SE,135,0.0,0.0,73,0.00,,,0.00,,2013-11-02 08:21:00,
2013-11-02 03:42:00,47.0,39.0,29.82,SE,135,0.0,0.0,75,0.00,,,0.00,,2013-11-02 08:42:00,
2013-11-02 03:52:00,47.0,40.0,29.83,SE,135,0.0,0.0,76,0.00,,,0.00,,2013-11-02 08:52:00,
2013-11-02 04:11:00,46.0,39.0,29.83,East,90,0.0,0.0,77,0.00,,,0.00,,2013-11-02 09:11:00,
2013-11-02 04:21:00,46.0,39.0,29.83,East,90,0.0,0.0,77,0.00,,,0.00,,2013-11-02 09:21:00,
2013-11-02 04:43:00,47.0,41.0,29.83,South,180,0.0,0.0,80,0.00,,,0.00,,2013-11-02 09:43:00,
2013-11-02 04:53:00,47.0,41.0,29.83,South,180,0.0,4.0,79,0.00,,,0.00,,2013-11-02 09:53:00,
2013-11-02 05:03:00,47.0,41.0,29.83,South,180,0.0,4.0,79,0.00,,,0.00,,2013-11-02 10:03:00,
2013-11-02 05:13:00,47.0,41.0,29.83,South,180,0.0,4.0,79,0.00,,,0.00,,2013-11-02 10:13:00,
2013-11-02 05:23:00,47.0,41.0,29.83,South,180,0.0,4.0,79,0.00,,,0.00,,2013-11-02 10:23:00,
2013-11-02 05:53:00,50.0,39.0,29.86,South,180,0.0,3.0,67,0.00,,,0.00,,2013-11-02 10:53:00,
2013-11-02 06:22:00,50.0,39.0,29.87,SE,135,2.0,3.0,65,0.00,,,0.00,,2013-11-02 11:22:00,
2013-11-02 06:33:00,50.0,39.0,29.87,SE,135,2.0,3.0,65,0.00,,,0.00,,2013-11-02 11:33:00,
2013-11-02 06:42:00,50.0,39.0,29.87,SE,135,2.0,3.0,65,0.00,,,0.00,,2013-11-02 11:42:00,
2013-11-02 06:52:00,48.0,39.0,29.88,SE,135,3.0,6.0,71,0.00,,,0.00,,2013-11-02 11:52:00,
2013-11-02 07:12:00,47.0,39.0,29.90,South,180,2.0,4.0,75,0.00,,,0.00,,2013-11-02 12:12:00,
2013-11-02 07:21:00,47.0,39.0,29.90,South,180,2.0,4.0,75,0.00,,,0.00,,2013-11-02 12:21:00,
2013-11-02 07:32:00,47.0,39.0,29.90,South,180,2.0,4.0,75,0.00,,,0.00,,2013-11-02 12:32:00,
2013-11-02 07:42:00,47.0,39.0,29.90,South,180,2.0,4.0,75,0.00,,,0.00,,2013-11-02 12:42:00,
2013-11-02 07:52:00,46.0,39.0,29.91,South,180,0.0,4.0,77,0.00,,,0.00,,2013-11-02 12:52:00,
2013-11-02 08:12:00,46.0,39.0,29.91,SE,135,0.0,3.0,77,0.00,,,0.00,,2013-11-02 13:12:00,
2013-11-02 08:22:00,46.0,39.0,29.93,South,180,0.0,1.0,77,0.00,,,0.00,,2013-11-02 13:22:00,
2013-11-02 08:42:00,46.0,39.0,29.94,SE,135,0.0,3.0,77,0.00,,,0.00,,2013-11-02 13:42:00,
2013-11-02 08:52:00,47.0,40.0,29.94,SE,135,0.0,3.0,77,0.00,,,0.00,,2013-11-02 13:52:00,
2013-11-02 09:02:00,47.0,40.0,29.94,SE,135,0.0,3.0,77,0.00,,,0.00,,2013-11-02 14:02:00,
2013-11-02 09:11:00,47.0,40.0,29.94,SE,135,0.0,3.0,77,0.00,,,0.00,,2013-11-02 14:11:00,
2013-11-02 09:21:00,54.0,39.0,29.96,South,180,3.0,6.0,56,0.00,,,0.00,,2013-11-02 14:21:00,
2013-11-02 09:32:00,54.0,39.0,29.96,South,180,3.0,6.0,56,0.00,,,0.00,,2013-11-02 14:32:00,
2013-11-02 09:42:00,54.0,39.0,29.96,South,180,3.0,6.0,56,0.00,,,0.00,,2013-11-02 14:42:00,
2013-11-02 09:52:00,57.0,37.0,29.96,South,180,0.0,8.0,47,0.00,,,0.00,,2013-11-02 14:52:00,
2013-11-02 21:11:00,46.0,32.0,29.98,NE,45,0.0,0.0,59,0.00,,,0.00,,2013-11-03 02:11:00,
2013-11-02 21:21:00,45.0,32.0,29.98,NE,45,0.0,0.0,61,0.00,,,0.00,,2013-11-03 02:21:00,
2013-11-02 21:52:00,44.0,33.0,29.99,NE,45,0.0,0.0,65,0.00,,,0.00,,2013-11-03 02:52:00,
2013-11-02 22:02:00,44.0,33.0,29.99,NE,45,0.0,0.0,65,0.00,,,0.00,,2013-11-03 03:02:00,
2013-11-02 22:11:00,44.0,33.0,29.99,NE,45,0.0,0.0,65,0.00,,,0.00,,2013-11-03 03:11:00,
2013-11-02 22:22:00,43.0,33.0,29.98,NE,45,0.0,0.0,68,0.00,,,0.00,,2013-11-03 03:22:00,
2013-11-02 22:45:00,42.0,33.0,30.00,NE,45,0.0,0.0,70,0.00,,,0.00,,2013-11-03 03:45:00,
2013-11-02 22:54:00,42.0,33.0,29.99,NE,45,0.0,0.0,71,0.00,,,0.00,,2013-11-03 03:54:00,
2013-11-02 23:02:00,-999.0,-99.9,29.99,NE,45,0.0,0.0,-999,-99.99,,,-99.99,,2013-11-03 04:02:00,
2013-11-02 23:13:00,42.0,34.0,29.99,NE,45,0.0,0.0,72,0.00,,,0.00,,2013-11-03 04:13:00,
2013-11-02 23:23:00,42.0,34.0,29.99,NE,45,0.0,0.0,72,0.00,,,0.00,,2013-11-03 04:23:00,
2013-11-02 23:44:00,41.0,34.0,29.99,North,360,0.0,0.0,75,0.00,,,0.00,,2013-11-03 04:44:00,
2013-11-02 23:52:00,41.0,34.0,29.99,North,360,0.0,0.0,75,0.00,,,0.00,,2013-11-03 04:52:00,